PWSweather.com
Personal Weather Stations
Station Observations
EW7135
Hopkinton, MA 01748

Hopkinton, MA 01748

Lat: 42.2281651, Lon: -71.54263960000003

Elevation: 354

Station Type: Davis Pro 2

Latest ConditionsUpdated 7:15:00 AM EST Sunday, Jan 20, 2019
Currently Today's Max Today's Min Today's Average
Temperature 21.4°F-5.9°C 32.0°F0.0°C 21.4°F-5.9°C 29.9°F-1.2°C
Dew Point 19.7°F-6.8°C 31.0°F-0.6°C 19.7°F-6.8°C 28.7°F-1.8°C
Winds 5.0 mph N8.0 kmh N 8.0 mph -12.9 kmh - - 4.6 mph 7.4 kmh
Wind Gusts 12.0 mph19.3 kmh 22.0 mph35.4 kmh - -
Humidity 93% 96% 93% 95%
Pressure 29.68 in1005.1 mb 30.09 in1019.0 mb 29.68 in1005.1 mb -
Hour Temp Dew Point Humidity Winds Wind Gusts Pressure Precip Precip Rate Daily Precip Total
07:15 AM 21.4°F-5.9°C 19.7°F-6.8°C 93% 5.0 mph N8.0 kmh N 12.0 mph19.3 kmh 29.68 in1005.1 mb 0.00 in0.0 mm 0.00 in0.0 mm 0.00 in0.0 mm
07:00 AM 22.6°F-5.2°C 20.9°F-6.2°C 93% 8.0 mph N12.9 kmh N 15.0 mph24.1 kmh 29.69 in1005.4 mb 0.00 in0.0 mm 0.00 in0.0 mm 0.00 in0.0 mm
06:45 AM 26.7°F-2.9°C 25.5°F-3.6°C 95% 4.0 mph NW6.4 kmh NW 14.0 mph22.5 kmh 29.68 in1005.1 mb 0.00 in0.0 mm 0.00 in0.0 mm 0.00 in0.0 mm
06:30 AM 30.0°F-1.1°C 29.0°F-1.7°C 96% 4.0 mph NW6.4 kmh NW 10.0 mph16.1 kmh 29.70 in1005.8 mb 0.00 in0.0 mm 0.00 in0.0 mm 0.00 in0.0 mm
06:15 AM 31.2°F-0.4°C 30.2°F-1.0°C 96% 5.0 mph N8.0 kmh N 12.0 mph19.3 kmh 29.71 in1006.1 mb 0.00 in0.0 mm 0.00 in0.0 mm 0.00 in0.0 mm
06:00 AM 31.5°F-0.3°C 30.5°F-0.8°C 96% 3.0 mph NNE4.8 kmh NNE 9.0 mph14.5 kmh 29.72 in1006.4 mb 0.00 in0.0 mm 0.00 in0.0 mm 0.00 in0.0 mm
05:45 AM 31.8°F-0.1°C 30.8°F-0.7°C 96% 3.0 mph NNW4.8 kmh NNW 9.0 mph14.5 kmh 29.74 in1007.1 mb 0.00 in0.0 mm 0.00 in0.0 mm 0.00 in0.0 mm
05:30 AM 32.0°F0.0°C 31.0°F-0.6°C 96% 2.0 mph NNW3.2 kmh NNW 9.0 mph14.5 kmh 29.76 in1007.8 mb 0.00 in0.0 mm 0.00 in0.0 mm 0.00 in0.0 mm
05:15 AM 31.6°F-0.2°C 30.6°F-0.8°C 96% 3.0 mph NE4.8 kmh NE 11.0 mph17.7 kmh 29.75 in1007.5 mb 0.00 in0.0 mm 0.00 in0.0 mm 0.00 in0.0 mm
05:00 AM 31.4°F-0.3°C 30.4°F-0.9°C 96% 4.0 mph NE6.4 kmh NE 15.0 mph24.1 kmh 29.77 in1008.1 mb 0.00 in0.0 mm 0.00 in0.0 mm 0.00 in0.0 mm
04:45 AM 31.2°F-0.4°C 30.2°F-1.0°C 96% 5.0 mph NE8.0 kmh NE 12.0 mph19.3 kmh 29.80 in1009.1 mb 0.00 in0.0 mm 0.00 in0.0 mm 0.00 in0.0 mm
04:30 AM 30.7°F-0.7°C 29.7°F-1.3°C 96% 5.0 mph NE8.0 kmh NE 14.0 mph22.5 kmh 29.80 in1009.1 mb 0.00 in0.0 mm 0.00 in0.0 mm 0.00 in0.0 mm
04:15 AM 30.5°F-0.8°C 29.5°F-1.4°C 96% 8.0 mph ENE12.9 kmh ENE 17.0 mph27.4 kmh 29.81 in1009.5 mb 0.00 in0.0 mm 0.00 in0.0 mm 0.00 in0.0 mm
04:00 AM 30.4°F-0.9°C 29.4°F-1.4°C 96% 6.0 mph NE9.7 kmh NE 16.0 mph25.7 kmh 29.85 in1010.8 mb 0.00 in0.0 mm 0.00 in0.0 mm 0.00 in0.0 mm
03:45 AM 30.4°F-0.9°C 29.4°F-1.4°C 96% 7.0 mph ENE11.3 kmh ENE 18.0 mph29.0 kmh 29.87 in1011.5 mb 0.00 in0.0 mm 0.00 in0.0 mm 0.00 in0.0 mm
03:30 AM 30.4°F-0.9°C 29.4°F-1.4°C 96% 6.0 mph NE9.7 kmh NE 17.0 mph27.4 kmh 29.87 in1011.5 mb 0.00 in0.0 mm 0.00 in0.0 mm 0.00 in0.0 mm
03:15 AM 30.5°F-0.8°C 29.5°F-1.4°C 96% 4.0 mph NE6.4 kmh NE 13.0 mph20.9 kmh 29.90 in1012.5 mb 0.00 in0.0 mm 0.00 in0.0 mm 0.00 in0.0 mm
03:00 AM 30.6°F-0.8°C 29.6°F-1.3°C 96% 4.0 mph NE6.4 kmh NE 18.0 mph29.0 kmh 29.93 in1013.5 mb 0.00 in0.0 mm 0.00 in0.0 mm 0.00 in0.0 mm
02:45 AM 30.9°F-0.6°C 29.9°F-1.2°C 96% 6.0 mph ENE9.7 kmh ENE 18.0 mph29.0 kmh 29.94 in1013.9 mb 0.00 in0.0 mm 0.00 in0.0 mm 0.00 in0.0 mm
02:30 AM 31.0°F-0.6°C 30.0°F-1.1°C 96% 6.0 mph ENE9.7 kmh ENE 22.0 mph35.4 kmh 29.95 in1014.2 mb 0.00 in0.0 mm 0.00 in0.0 mm 0.00 in0.0 mm
02:15 AM 31.2°F-0.4°C 30.2°F-1.0°C 96% 5.0 mph ENE8.0 kmh ENE 18.0 mph29.0 kmh 29.96 in1014.6 mb 0.00 in0.0 mm 0.00 in0.0 mm 0.00 in0.0 mm
02:00 AM 30.8°F-0.7°C 29.8°F-1.2°C 96% 5.0 mph NE8.0 kmh NE 15.0 mph24.1 kmh 29.98 in1015.2 mb 0.00 in0.0 mm 0.00 in0.0 mm 0.00 in0.0 mm
01:45 AM 30.4°F-0.9°C 29.1°F-1.6°C 95% 6.0 mph NE9.7 kmh NE 15.0 mph24.1 kmh 29.97 in1014.9 mb 0.00 in0.0 mm 0.00 in0.0 mm 0.00 in0.0 mm
01:30 AM 30.3°F-0.9°C 29.0°F-1.7°C 95% 3.0 mph NE4.8 kmh NE 12.0 mph19.3 kmh 30.00 in1015.9 mb 0.00 in0.0 mm 0.00 in0.0 mm 0.00 in0.0 mm
01:15 AM 30.1°F-1.1°C 28.8°F-1.8°C 95% 5.0 mph NE8.0 kmh NE 12.0 mph19.3 kmh 30.02 in1016.6 mb 0.00 in0.0 mm 0.00 in0.0 mm 0.00 in0.0 mm
01:00 AM 30.1°F-1.1°C 28.8°F-1.8°C 95% 4.0 mph NE6.4 kmh NE 14.0 mph22.5 kmh 30.02 in1016.6 mb 0.00 in0.0 mm 0.00 in0.0 mm 0.00 in0.0 mm
12:45 AM 29.7°F-1.3°C 28.4°F-2.0°C 95% 3.0 mph NE4.8 kmh NE 11.0 mph17.7 kmh 30.04 in1017.3 mb 0.00 in0.0 mm 0.00 in0.0 mm 0.00 in0.0 mm
12:30 AM 29.4°F-1.4°C 28.1°F-2.2°C 95% 4.0 mph NE6.4 kmh NE 15.0 mph24.1 kmh 30.05 in1017.6 mb 0.00 in0.0 mm 0.00 in0.0 mm 0.00 in0.0 mm
12:15 AM 28.9°F-1.7°C 27.4°F-2.6°C 94% 3.0 mph NE4.8 kmh NE 9.0 mph14.5 kmh 30.07 in1018.3 mb 0.00 in0.0 mm 0.00 in0.0 mm 0.00 in0.0 mm
12:00 AM 28.5°F-1.9°C 27.0°F-2.8°C 94% 1.0 mph NE1.6 kmh NE 6.0 mph9.7 kmh 30.09 in1019.0 mb 0.00 in0.0 mm 0.00 in0.0 mm 0.00 in0.0 mm